Time;durP1;ratioP1;P1;durP2;ratioP2;P2;SDS_P1;SDS_P2;PMS_P1;PMS_P2;Temp;Humidity;BMP_temperature;BMP_pressure;BME280_temperature;BME280_humidity;BME280_pressure;Samples;Min_cycle;Max_cycle;Signal;HPM_P1;HPM_P2
2021/04/18 00:04:44;;;;;;;57.63;35.37;;;;;;;7.58;87.12;100917.59;3373729;85;35094;-84
2021/04/18 00:09:44;;;;;;;60.03;34.23;;;;;;;7.62;87.48;100909.70;3466268;83;98688;-84
2021/04/18 00:14:45;;;;;;;58.58;34.90;;;;;;;7.71;87.51;100912.30;3479315;83;34959;-83
2021/04/18 00:19:47;;;;;;;56.87;34.87;;;;;;;7.76;87.88;100905.21;3472401;83;98419;-84
2021/04/18 00:24:48;;;;;;;55.47;33.57;;;;;;;7.83;87.97;100910.89;3477887;83;32712;-83
2021/04/18 00:29:48;;;;;;;55.43;32.47;;;;;;;7.85;88.19;100908.03;3472522;83;98458;-84
2021/04/18 00:34:49;;;;;;;51.07;31.53;;;;;;;7.80;87.96;100888.31;3483951;83;32645;-84
2021/04/18 00:39:50;;;;;;;54.70;31.93;;;;;;;7.95;88.07;100910.85;3475922;83;98414;-83
2021/04/18 00:44:51;;;;;;;53.73;33.00;;;;;;;7.98;88.05;100907.43;3482304;83;33262;-83
2021/04/18 00:49:51;;;;;;;56.53;33.67;;;;;;;7.98;87.93;100897.28;3469723;83;98677;-84
2021/04/18 00:54:53;;;;;;;55.28;33.35;;;;;;;7.98;88.07;100889.61;3477233;83;32681;-84
2021/04/18 00:59:53;;;;;;;57.67;33.03;;;;;;;7.96;87.99;100886.44;3471487;80;98608;-83
2021/04/18 01:04:54;;;;;;;49.63;31.17;;;;;;;7.96;87.68;100880.36;3494889;82;25951;-84
2021/04/18 01:09:55;;;;;;;53.57;32.60;;;;;;;7.95;87.81;100872.48;3508062;82;98476;-84
2021/04/18 01:14:56;;;;;;;52.50;31.80;;;;;;;7.88;87.71;100885.43;3516406;82;26523;-83
2021/04/18 01:19:56;;;;;;;53.77;32.30;;;;;;;7.87;87.78;100887.14;3516169;82;98621;-83
2021/04/18 01:24:57;;;;;;;55.37;33.70;;;;;;;7.88;87.68;100885.98;3517240;82;25968;-84
2021/04/18 01:29:58;;;;;;;57.27;34.87;;;;;;;7.88;87.61;100880.52;3505923;82;98588;-84
2021/04/18 01:35:01;;;;;;;56.03;35.40;;;;;;;7.86;88.33;100878.11;3509210;82;26696;-83
2021/04/18 01:40:04;;;;;;;60.90;36.67;;;;;;;7.88;88.25;100872.29;3506467;82;98747;-84
2021/04/18 01:45:06;;;;;;;61.63;39.60;;;;;;;7.89;88.41;100877.98;3510898;82;33265;-82
2021/04/18 01:50:11;;;;;;;61.40;37.80;;;;;;;7.92;88.79;100878.67;3504717;82;100019;-84
2021/04/18 01:55:14;;;;;;;62.33;37.93;;;;;;;7.91;89.07;100874.34;3517070;82;33796;-83
2021/04/18 02:00:15;;;;;;;63.20;38.47;;;;;;;7.91;89.26;100867.50;3485279;82;98771;-84
2021/04/18 02:05:16;;;;;;;62.90;38.13;;;;;;;7.87;89.62;100863.29;3500323;82;33258;-84
2021/04/18 02:10:17;;;;;;;66.83;39.13;;;;;;;7.86;89.74;100878.70;3475172;83;98407;-84
2021/04/18 02:15:19;;;;;;;56.90;36.10;;;;;;;7.84;89.94;100873.56;3482059;83;33281;-84
2021/04/18 02:20:20;;;;;;;57.90;34.27;;;;;;;7.83;90.07;100865.13;3472762;83;98530;-83
2021/04/18 02:25:20;;;;;;;59.13;34.80;;;;;;;7.84;90.06;100863.97;3478521;83;33958;-84
2021/04/18 02:30:22;;;;;;;55.40;34.20;;;;;;;7.88;90.04;100854.48;3473121;83;98701;-83
2021/04/18 02:35:23;;;;;;;57.20;33.50;;;;;;;7.87;89.96;100854.26;3480063;83;33876;-83
2021/04/18 02:40:23;;;;;;;56.13;33.10;;;;;;;7.85;90.21;100845.01;3465808;83;98520;-83
2021/04/18 02:45:24;;;;;;;51.07;31.10;;;;;;;7.87;90.53;100843.30;3481755;83;33012;-84
2021/04/18 02:50:25;;;;;;;52.60;31.93;;;;;;;7.85;90.53;100842.86;3474341;83;98433;-83
2021/04/18 02:55:27;;;;;;;49.80;30.17;;;;;;;7.85;90.66;100847.75;3477317;83;47388;-83
2021/04/18 03:00:27;;;;;;;50.63;30.53;;;;;;;7.85;90.70;100838.75;3475171;83;98420;-83
2021/04/18 03:05:28;;;;;;;47.73;28.13;;;;;;;7.83;90.90;100839.09;3488873;82;31996;-83
2021/04/18 03:10:29;;;;;;;48.20;30.00;;;;;;;7.84;91.03;100828.91;3507568;82;98200;-83
2021/04/18 03:15:30;;;;;;;42.53;28.73;;;;;;;7.83;91.25;100824.58;3509716;82;31758;-83
2021/04/18 03:20:31;;;;;;;47.50;29.97;;;;;;;7.83;91.08;100813.06;3511699;82;98442;-83
2021/04/18 03:25:32;;;;;;;47.87;28.07;;;;;;;7.88;91.08;100814.74;3508430;82;30506;-83
2021/04/18 03:30:33;;;;;;;47.87;29.00;;;;;;;7.88;91.33;100812.81;3509888;82;98328;-83
2021/04/18 03:35:34;;;;;;;44.50;27.77;;;;;;;7.88;91.33;100812.81;3514494;82;35028;-84
2021/04/18 03:40:35;;;;;;;37.53;25.73;;;;;;;7.87;91.29;100818.63;3510047;82;98528;-83
2021/04/18 03:45:36;;;;;;;45.67;25.87;;;;;;;7.85;91.37;100830.53;3511553;82;35534;-84
2021/04/18 03:50:37;;;;;;;38.23;25.17;;;;;;;7.86;91.68;100826.64;3509576;82;98451;-83
2021/04/18 03:55:38;;;;;;;38.03;24.57;;;;;;;7.88;91.68;100840.22;3512421;82;35862;-82
2021/04/18 04:00:39;;;;;;;36.07;23.93;;;;;;;7.87;91.73;100835.08;3510982;82;98446;-84
2021/04/18 04:05:39;;;;;;;34.95;21.85;;;;;;;7.88;91.90;100826.52;3494164;82;35072;-83
2021/04/18 04:10:40;;;;;;;35.77;22.50;;;;;;;7.87;92.15;100830.41;3436071;84;98263;-84
2021/04/18 04:15:41;;;;;;;41.60;23.42;;;;;;;7.87;92.39;100835.89;3384413;85;35087;-84
2021/04/18 04:20:42;;;;;;;35.70;23.07;;;;;;;7.88;92.86;100844.33;3336901;86;98373;-83
2021/04/18 04:25:43;;;;;;;35.13;21.37;;;;;;;7.88;92.88;100845.70;3370073;86;33240;-83
2021/04/18 04:30:44;;;;;;;36.93;22.27;;;;;;;7.91;93.05;100849.09;3376440;85;97994;-83
2021/04/18 04:35:44;;;;;;;34.00;21.80;;;;;;;7.93;93.34;100848.19;3343715;86;32725;-83
2021/04/18 04:40:45;;;;;;;37.80;23.43;;;;;;;7.97;93.29;100843.58;3342357;86;98401;-83
2021/04/18 04:45:46;;;;;;;39.23;21.87;;;;;;;8.01;93.52;100847.82;3381442;86;33025;-83
2021/04/18 04:50:47;;;;;;;39.70;22.53;;;;;;;8.05;93.63;100843.20;3441270;83;98021;-83
2021/04/18 04:55:48;;;;;;;35.68;22.48;;;;;;;8.11;93.92;100850.84;3446085;84;32743;-83
2021/04/18 05:00:49;;;;;;;40.27;22.83;;;;;;;8.18;94.18;100855.14;3450613;84;97944;-84
2021/04/18 05:05:51;;;;;;;44.37;23.70;;;;;;;8.30;94.62;100854.32;3461046;82;98302;-84
2021/04/18 05:10:51;;;;;;;44.27;24.73;;;;;;;8.40;94.70;100851.84;3514936;82;28056;-84
2021/04/18 05:15:52;;;;;;;42.93;24.60;;;;;;;8.50;94.42;100849.19;3497431;82;98973;-85
2021/04/18 05:20:53;;;;;;;46.57;24.17;;;;;;;8.52;94.41;100853.73;3516309;82;26462;-84
2021/04/18 05:25:54;;;;;;;45.87;25.83;;;;;;;8.57;94.25;100855.62;3509548;82;98961;-84
2021/04/18 05:30:56;;;;;;;43.43;23.77;;;;;;;8.64;94.33;100856.39;3514897;82;26407;-85
2021/04/18 05:35:57;;;;;;;45.63;26.50;;;;;;;8.68;95.08;100858.06;3503137;82;99387;-83
2021/04/18 05:40:58;;;;;;;42.97;24.83;;;;;;;8.73;94.60;100868.00;3508631;82;26052;-84
2021/04/18 05:45:58;;;;;;;44.07;24.27;;;;;;;8.81;94.94;100869.75;3507076;82;98775;-83
2021/04/18 05:50:59;;;;;;;44.27;25.73;;;;;;;8.90;94.60;100868.42;3518071;82;26517;-83
2021/04/18 05:56:00;;;;;;;46.23;26.37;;;;;;;8.98;94.41;100874.88;3507915;82;99255;-83
2021/04/18 06:01:01;;;;;;;45.43;24.80;;;;;;;9.10;94.33;100865.20;3512795;82;33371;-84
2021/04/18 06:06:02;;;;;;;42.10;24.70;;;;;;;9.15;94.19;100855.28;3500809;82;99123;-84
2021/04/18 06:11:04;;;;;;;39.43;24.00;;;;;;;9.17;94.17;100862.61;3474654;83;34336;-83
2021/04/18 06:16:06;;;;;;;47.07;24.47;;;;;;;9.18;94.01;100860.89;3471330;83;98884;-83
2021/04/18 06:21:07;;;;;;;44.50;23.87;;;;;;;9.25;93.88;100867.09;3415427;85;33789;-83
2021/04/18 06:26:08;;;;;;;39.67;23.17;;;;;;;9.32;93.98;100860.41;3470798;83;123262;-83
2021/04/18 06:31:08;;;;;;;43.10;25.53;;;;;;;9.40;93.74;100862.96;3480408;83;33351;-83
2021/04/18 06:36:10;;;;;;;39.03;23.90;;;;;;;9.54;93.62;100861.89;3469970;83;98852;-83
2021/04/18 06:41:15;;;;;;;44.17;25.13;;;;;;;9.60;93.34;100865.94;3483052;83;33398;-83
2021/04/18 06:46:19;;;;;;;43.48;24.32;;;;;;;9.67;93.34;100865.31;3469958;83;98970;-83
2021/04/18 06:51:20;;;;;;;41.27;23.93;;;;;;;9.76;93.30;100870.03;3477241;83;33772;-83
2021/04/18 06:56:21;;;;;;;42.40;23.63;;;;;;;9.87;92.84;100869.08;3464595;83;99018;-83
2021/04/18 07:01:22;;;;;;;41.57;23.17;;;;;;;10.03;92.71;100866.28;3476585;83;33791;-83
2021/04/18 07:06:38;;;;;;;41.23;22.70;;;;;;;10.13;91.75;100869.25;3481846;81;99572;-82
2021/04/18 07:11:48;;;;;;;;;;;;;;;10.21;91.00;100867.44;3513899;82;26025;-84
2021/04/18 07:16:51;;;;;;;43.08;21.77;;;;;;;10.46;90.29;100872.84;3508687;82;85050;-82
2021/04/18 07:21:55;;;;;;;44.13;24.10;;;;;;;10.60;89.48;100865.64;3518443;82;33399;-83
2021/04/18 07:27:01;;;;;;;42.20;22.40;;;;;;;10.70;87.55;100882.13;3516762;82;98968;-85
2021/04/18 07:32:21;;;;;;;45.40;23.30;;;;;;;10.71;88.08;100879.01;3516658;82;27118;-85
2021/04/18 07:37:28;;;;;;;47.50;25.20;;;;;;;10.76;87.17;100888.34;3509986;82;98743;-83
2021/04/18 07:42:42;;;;;;;45.10;25.67;;;;;;;10.88;86.28;100902.48;3512412;82;33382;-84
2021/04/18 07:47:46;;;;;;;40.27;23.83;;;;;;;11.06;86.55;100893.36;3508933;82;99087;-85
2021/04/18 07:52:49;;;;;;;34.50;19.30;;;;;;;11.25;85.67;100898.00;3511921;82;33308;-85
2021/04/18 07:57:51;;;;;;;35.77;21.13;;;;;;;11.18;82.11;100898.67;3512820;82;99116;-85
2021/04/18 08:02:53;;;;;;;38.13;20.77;;;;;;;11.30;82.46;100902.63;3496907;82;34454;-86
2021/04/18 08:08:10;;;;;;;31.95;18.85;;;;;;;11.35;82.71;100899.52;3488148;82;98670;-88
2021/04/18 08:13:23;;;;;;;34.20;19.30;;;;;;;11.58;81.86;100893.97;3484599;83;33863;-85
2021/04/18 08:18:31;;;;;;;32.70;19.17;;;;;;;11.73;80.37;100894.41;3473516;82;98666;-84
2021/04/18 08:23:39;;;;;;;31.23;18.10;;;;;;;11.84;81.41;100903.03;3484215;83;33340;-83
2021/04/18 08:28:59;;;;;;;29.12;18.15;;;;;;;11.95;79.33;100901.80;3478205;83;98927;-83
2021/04/18 08:34:04;;;;;;;32.97;19.67;;;;;;;11.99;80.18;100897.91;3477022;83;34278;-84
2021/04/18 08:39:10;;;;;;;27.75;18.05;;;;;;;12.29;80.83;100899.27;3416948;85;98893;-84
2021/04/18 08:44:37;;;;;;;30.75;18.70;;;;;;;12.56;80.58;100895.23;3485151;83;26036;-83
2021/04/18 08:49:48;;;;;;;29.32;18.70;;;;;;;12.97;80.43;100895.47;3477955;83;98914;-84
2021/04/18 08:54:51;;;;;;;32.13;20.33;;;;;;;13.17;78.14;100900.95;3480955;83;33398;-83
2021/04/18 08:59:56;;;;;;;25.80;17.33;;;;;;;13.45;79.47;100877.08;3477130;83;98815;-83
2021/04/18 09:05:00;;;;;;;26.63;17.90;;;;;;;13.97;75.98;100887.66;3482954;83;33354;-84
2021/04/18 09:10:08;;;;;;;26.45;17.27;;;;;;;14.04;75.14;100889.06;3495663;82;98560;-83
2021/04/18 09:15:10;;;;;;;26.20;16.03;;;;;;;14.12;74.40;100898.97;3492599;82;33591;-84
2021/04/18 09:20:15;;;;;;;24.82;16.30;;;;;;;14.32;72.99;100896.70;3512600;82;98864;-84
2021/04/18 09:25:20;;;;;;;23.67;15.67;;;;;;;14.57;73.33;100896.19;3516927;82;33892;-83
2021/04/18 09:30:26;;;;;;;25.62;17.52;;;;;;;14.55;71.84;100900.73;3513075;82;98751;-82
2021/04/18 09:35:29;;;;;;;25.00;15.60;;;;;;;14.13;70.77;100903.34;3513997;82;26587;-84
2021/04/18 09:40:35;;;;;;;27.10;17.55;;;;;;;13.94;70.31;100911.95;3514967;82;98755;-83
2021/04/18 09:45:36;;;;;;;24.63;16.13;;;;;;;13.71;70.95;100921.11;3511162;82;34340;-83
2021/04/18 09:50:37;;;;;;;25.43;15.33;;;;;;;13.29;70.45;100919.42;3510674;82;98989;-84
2021/04/18 09:56:01;;;;;;;25.13;16.53;;;;;;;13.40;72.08;100929.20;3515776;82;34423;-86
2021/04/18 10:01:06;;;;;;;25.73;15.50;;;;;;;13.27;71.47;100924.55;3509282;82;33810;-85
2021/04/18 10:06:08;;;;;;;26.50;15.33;;;;;;;13.18;70.09;100925.45;3508078;82;98757;-84
2021/04/18 10:11:14;;;;;;;28.13;17.23;;;;;;;13.28;72.51;100927.52;3517667;82;33402;-83
2021/04/18 10:16:16;;;;;;;22.58;14.30;;;;;;;13.34;71.43;100928.74;3510071;82;99102;-84
2021/04/18 10:21:20;;;;;;;22.43;13.17;;;;;;;13.42;71.01;100932.36;3511929;82;33832;-84
2021/04/18 10:26:23;;;;;;;23.05;13.95;;;;;;;13.35;68.55;100929.55;3511985;82;99078;-83
2021/04/18 10:31:25;;;;;;;23.13;12.73;;;;;;;13.31;68.65;100930.10;3507637;82;33743;-83
2021/04/18 10:36:28;;;;;;;19.32;11.88;;;;;;;13.58;68.86;100923.97;3507241;82;99071;-84
2021/04/18 10:41:29;;;;;;;20.33;12.07;;;;;;;13.70;67.65;100925.64;3519739;82;33432;-84
2021/04/18 10:46:29;;;;;;;20.63;12.33;;;;;;;13.83;67.79;100917.20;3506024;82;98671;-83
2021/04/18 10:51:30;;;;;;;22.13;14.40;;;;;;;13.88;68.22;100912.69;3517529;81;33796;-86
2021/04/18 10:56:31;;;;;;;19.50;11.68;;;;;;;14.51;68.64;100909.61;3512214;82;99153;-85
2021/04/18 11:01:32;;;;;;;19.57;12.50;;;;;;;15.00;65.60;100909.70;3519715;82;33779;-86
2021/04/18 11:06:34;;;;;;;19.80;13.30;;;;;;;15.24;64.79;100910.91;3513178;82;99180;-85
2021/04/18 11:11:35;;;;;;;18.03;10.97;;;;;;;15.44;65.88;100904.61;3489260;82;33795;-85
2021/04/18 11:16:36;;;;;;;17.43;10.37;;;;;;;15.69;65.01;100901.80;3478536;83;99125;-85
2021/04/18 11:21:37;;;;;;;17.97;9.87;;;;;;;15.45;61.88;100898.44;3486041;83;33308;-85
2021/04/18 11:26:38;;;;;;;17.73;11.12;;;;;;;15.46;62.78;100893.09;3415978;85;98766;-85
2021/04/18 11:31:38;;;;;;;16.10;10.23;;;;;;;15.67;64.39;100893.05;3478763;83;31799;-85
2021/04/18 11:36:39;;;;;;;15.63;9.80;;;;;;;15.69;63.67;100895.63;3480067;82;99124;-83
2021/04/18 11:41:41;;;;;;;17.77;10.33;;;;;;;15.82;63.51;100899.58;3418822;85;31873;-86
2021/04/18 11:46:44;;;;;;;19.60;11.47;;;;;;;15.78;59.13;100896.02;3472138;82;99145;-84
2021/04/18 11:51:44;;;;;;;19.70;11.83;;;;;;;15.17;61.11;100902.02;3479580;83;26253;-84
2021/04/18 11:56:45;;;;;;;17.90;11.43;;;;;;;15.05;62.40;100907.93;3472980;83;99157;-83
2021/04/18 12:01:46;;;;;;;20.10;12.20;;;;;;;14.81;62.19;100910.09;3481948;83;31821;-83
2021/04/18 12:06:47;;;;;;;21.37;12.37;;;;;;;14.39;62.76;100918.90;3476137;83;99277;-83
2021/04/18 12:11:47;;;;;;;24.57;15.73;;;;;;;14.25;63.44;100920.22;3483909;83;31693;-83
2021/04/18 12:16:48;;;;;;;31.07;19.03;;;;;;;14.35;64.90;100913.94;3475736;83;99151;-84
2021/04/18 12:21:49;;;;;;;25.90;17.02;;;;;;;14.34;65.34;100923.43;3474301;83;31805;-84
2021/04/18 12:26:50;;;;;;;23.70;15.03;;;;;;;14.26;65.72;100914.30;3472443;83;99284;-81
2021/04/18 12:31:50;;;;;;;27.07;16.30;;;;;;;14.34;66.20;100917.28;3477839;83;25993;-83
2021/04/18 12:36:51;;;;;;;25.68;15.95;;;;;;;14.47;66.19;100914.95;3473915;83;98994;-83
2021/04/18 12:41:52;;;;;;;30.00;17.13;;;;;;;14.48;66.13;100909.03;3475022;83;35059;-83
2021/04/18 12:46:54;;;;;;;29.10;18.43;;;;;;;14.44;65.82;100922.06;3473573;81;99403;-84
2021/04/18 12:51:54;;;;;;;31.00;17.03;;;;;;;14.24;65.52;100918.64;3481635;83;35651;-84
2021/04/18 12:56:55;;;;;;;25.85;16.45;;;;;;;14.31;65.82;100909.77;3471686;83;99024;-84
2021/04/18 13:01:56;;;;;;;26.23;15.10;;;;;;;14.42;66.47;100913.95;3482424;83;35121;-82
2021/04/18 13:06:57;;;;;;;28.60;18.15;;;;;;;14.49;66.20;100909.84;3403647;85;98802;-82
2021/04/18 13:11:58;;;;;;;27.30;17.17;;;;;;;14.76;66.53;100904.94;3420701;85;28340;-85
2021/04/18 13:16:58;;;;;;;26.90;16.93;;;;;;;14.78;65.80;100867.91;3475712;83;99141;-86
2021/04/18 13:21:59;;;;;;;25.93;15.87;;;;;;;14.97;63.41;100902.20;3483366;83;32768;-85
2021/04/18 13:27:00;;;;;;;31.10;20.43;;;;;;;14.94;64.83;100898.81;3479717;83;99349;-86
2021/04/18 13:32:00;;;;;;;25.17;15.20;;;;;;;15.26;63.73;100904.39;3478962;83;34206;-86
2021/04/18 13:37:02;;;;;;;26.80;16.37;;;;;;;14.96;62.86;100906.16;3478733;81;99216;-85
2021/04/18 13:42:03;;;;;;;22.80;15.00;;;;;;;15.06;62.73;100899.03;3483433;83;28238;-86
2021/04/18 13:47:04;;;;;;;24.07;15.60;;;;;;;15.09;62.61;100901.80;3476575;81;99114;-86
2021/04/18 13:52:06;;;;;;;23.57;15.33;;;;;;;15.02;61.27;100903.77;3487184;83;27025;-85
2021/04/18 13:57:06;;;;;;;27.90;18.25;;;;;;;15.21;62.31;100901.40;3477370;83;99006;-83
2021/04/18 14:02:07;;;;;;;27.70;16.60;;;;;;;15.39;61.31;100894.49;3484872;83;26220;-85
2021/04/18 14:07:09;;;;;;;28.80;17.33;;;;;;;15.37;60.73;100892.72;3469927;83;99070;-87
2021/04/18 14:12:10;;;;;;;25.23;15.63;;;;;;;15.32;59.67;100892.48;3479719;83;26484;-85
2021/04/18 14:17:11;;;;;;;30.17;17.77;;;;;;;15.16;60.48;100894.09;3404113;85;98658;-86
2021/04/18 14:22:12;;;;;;;30.53;17.90;;;;;;;15.01;59.67;100893.30;3414013;85;25913;-85
2021/04/18 14:27:13;;;;;;;27.57;17.50;;;;;;;14.99;60.48;100890.11;3384278;86;99322;-86
2021/04/18 14:32:14;;;;;;;28.20;16.93;;;;;;;15.13;60.10;100882.39;3391402;86;26073;-85
2021/04/18 14:37:15;;;;;;;32.20;19.13;;;;;;;15.40;58.04;100891.91;3376760;86;98707;-87
2021/04/18 14:42:15;;;;;;;24.60;14.07;;;;;;;15.40;58.04;100891.91;3387291;86;25999;-88
2021/04/18 14:47:16;;;;;;;26.90;15.40;;;;;;;15.13;57.36;100885.97;3384292;86;99224;-86
2021/04/18 14:52:19;;;;;;;23.77;14.63;;;;;;;14.85;55.63;100892.08;3384965;86;33810;-91
2021/04/18 14:57:21;;;;;;;31.42;17.52;;;;;;;14.71;58.08;100891.47;3411436;85;98977;-86
2021/04/18 15:02:22;;;;;;;28.03;16.53;;;;;;;14.90;58.39;100886.15;3385884;86;33342;-87
2021/04/18 15:07:23;;;;;;;32.20;19.73;;;;;;;14.92;59.77;100890.11;3402300;85;99000;-85
2021/04/18 15:12:23;;;;;;;33.37;20.10;;;;;;;14.91;58.15;100894.08;3409867;84;33779;-85
2021/04/18 15:17:25;;;;;;;29.37;17.43;;;;;;;14.89;59.99;100901.20;3448093;84;98939;-84
2021/04/18 15:22:28;;;;;;;29.93;18.57;;;;;;;14.69;59.08;100903.55;3452947;84;33523;-85
2021/04/18 15:27:29;;;;;;;32.23;19.23;;;;;;;14.39;60.59;100904.44;3429769;84;99306;-85
2021/04/18 15:32:30;;;;;;;36.03;22.30;;;;;;;14.41;61.55;100906.83;3453324;84;33980;-83
2021/04/18 15:37:33;;;;;;;40.87;22.50;;;;;;;14.41;61.80;100901.29;3442784;83;99113;-83
2021/04/18 15:42:35;;;;;;;31.47;19.17;;;;;;;14.44;61.36;100899.91;3442328;84;33279;-85
2021/04/18 15:47:35;;;;;;;35.13;20.37;;;;;;;14.38;61.37;100893.78;3429127;82;98984;-84
2021/04/18 15:52:36;;;;;;;33.83;20.70;;;;;;;14.37;61.60;100884.67;3452510;83;33283;-83
2021/04/18 15:57:37;;;;;;;36.80;20.63;;;;;;;14.32;61.23;100896.70;3445040;82;98901;-84
2021/04/18 16:02:39;;;;;;;36.77;19.07;;;;;;;14.20;61.10;100897.06;3448536;84;33410;-85
2021/04/18 16:07:40;;;;;;;32.00;18.53;;;;;;;14.17;60.95;100890.91;3443992;82;99291;-83
2021/04/18 16:12:42;;;;;;;37.45;21.50;;;;;;;13.97;61.56;100908.42;3452900;84;33315;-83
2021/04/18 16:17:43;;;;;;;34.57;19.53;;;;;;;14.00;61.77;100906.84;3442958;82;98932;-83
2021/04/18 16:22:43;;;;;;;38.70;22.20;;;;;;;13.93;61.36;100908.98;3450580;84;33411;-84
2021/04/18 16:27:44;;;;;;;36.33;19.93;;;;;;;13.88;62.12;100909.34;3439694;84;99220;-84
2021/04/18 16:32:45;;;;;;;35.23;19.30;;;;;;;13.81;61.96;100912.08;3453197;84;33808;-86
2021/04/18 16:37:47;;;;;;;32.73;17.93;;;;;;;13.66;60.84;100926.20;3444415;84;99130;-85
2021/04/18 16:42:48;;;;;;;31.30;16.87;;;;;;;13.39;60.36;100920.67;3451477;84;33365;-85
2021/04/18 16:47:48;;;;;;;29.80;16.25;;;;;;;13.27;60.95;100930.66;3445367;83;99158;-86
2021/04/18 16:52:49;;;;;;;31.77;16.93;;;;;;;13.10;61.28;100932.11;3457011;84;31790;-87
2021/04/18 16:57:50;;;;;;;33.77;17.13;;;;;;;12.99;61.21;100938.13;3449571;84;98889;-85
2021/04/18 17:02:52;;;;;;;36.40;17.83;;;;;;;12.90;61.35;100942.32;3455949;84;31818;-86
2021/04/18 17:07:55;;;;;;;30.25;16.50;;;;;;;12.81;62.09;100941.86;3448124;84;99092;-86
2021/04/18 17:12:59;;;;;;;34.50;18.67;;;;;;;12.83;62.68;100945.83;3447105;84;31895;-85
2021/04/18 17:17:59;;;;;;;34.27;18.77;;;;;;;12.81;62.88;100959.20;3409893;82;98882;-86
2021/04/18 17:23:01;;;;;;;36.83;19.83;;;;;;;12.75;63.25;100953.04;3411486;85;32283;-86
2021/04/18 17:28:06;;;;;;;37.00;20.85;;;;;;;12.65;63.53;100966.14;3437404;81;98619;-88
2021/04/18 17:33:07;;;;;;;34.30;19.00;;;;;;;12.63;63.87;100969.27;3447833;84;25477;-87
2021/04/18 17:38:08;;;;;;;40.23;20.50;;;;;;;12.60;64.61;100981.67;3432593;84;98828;-85
2021/04/18 17:43:09;;;;;;;33.13;18.67;;;;;;;12.53;64.58;100976.06;3445630;84;31696;-86
2021/04/18 17:48:10;;;;;;;32.77;18.17;;;;;;;12.26;64.62;100967.64;3446839;82;99217;-87
2021/04/18 17:53:11;;;;;;;38.20;20.00;;;;;;;12.33;65.23;100987.05;3401602;85;32171;-86
2021/04/18 17:58:13;;;;;;;37.00;19.03;;;;;;;12.20;65.54;100990.63;3393640;85;98754;-86
2021/04/18 18:03:14;;;;;;;40.73;19.77;;;;;;;12.06;66.09;100991.02;3405036;85;31846;-86
2021/04/18 18:08:16;;;;;;;46.43;24.17;;;;;;;11.83;66.71;100995.81;3397742;83;99388;-88
2021/04/18 18:13:16;;;;;;;43.13;21.67;;;;;;;11.65;67.18;101002.42;3482511;83;31829;-86
2021/04/18 18:18:17;;;;;;;44.23;22.93;;;;;;;11.53;67.89;100999.84;3479408;83;98860;-86
2021/04/18 18:23:21;;;;;;;37.10;19.67;;;;;;;11.46;68.41;101003.06;3485221;83;31794;-86
2021/04/18 18:28:22;;;;;;;35.27;19.27;;;;;;;11.25;68.92;101004.08;3400882;85;98731;-87
2021/04/18 18:33:23;;;;;;;45.40;24.40;;;;;;;11.20;69.68;101016.20;3384789;86;31756;-86
2021/04/18 18:38:24;;;;;;;39.63;22.47;;;;;;;10.99;70.14;101010.88;3372726;86;98762;-87
2021/04/18 18:43:24;;;;;;;46.20;25.60;;;;;;;10.99;70.14;101010.88;3419129;85;32263;-86
2021/04/18 18:48:27;;;;;;;48.60;25.47;;;;;;;10.94;70.35;101013.92;3380570;85;98854;-87
2021/04/18 18:53:38;;;;;;;45.87;23.90;;;;;;;10.83;70.44;101017.88;3382454;86;31814;-86
2021/04/18 18:58:30;;;;;;;45.33;23.73;;;;;;;10.66;70.77;101026.58;3401585;83;98743;-86
2021/04/18 19:03:31;;;;;;;53.77;24.23;;;;;;;10.29;71.26;101007.52;3389110;86;32378;-86
2021/04/18 19:08:33;;;;;;;50.90;24.80;;;;;;;10.29;71.26;101007.52;3383484;86;99195;-85
2021/04/18 19:13:34;;;;;;;51.13;25.90;;;;;;;10.24;71.65;101029.81;3402741;85;32095;-86
2021/04/18 19:18:35;;;;;;;61.67;30.00;;;;;;;10.20;71.96;101031.67;3387484;85;99142;-83
2021/04/18 19:23:36;;;;;;;115.40;51.33;;;;;;;10.09;72.17;101032.02;3441070;84;31784;-85
2021/04/18 19:28:37;;;;;;;91.30;43.03;;;;;;;9.87;72.37;101038.75;3396234;85;98871;-86
2021/04/18 19:33:40;;;;;;;93.23;45.40;;;;;;;9.89;72.75;101041.36;3441634;84;31830;-83
2021/04/18 19:38:41;;;;;;;78.00;37.27;;;;;;;9.82;72.98;101044.52;3396940;85;98404;-83
2021/04/18 19:43:42;;;;;;;79.50;37.47;;;;;;;9.69;73.10;101035.57;3441649;84;32255;-84
2021/04/18 19:48:42;;;;;;;97.10;41.47;;;;;;;9.58;73.51;101037.83;3498425;83;99106;-85
2021/04/18 19:53:43;;;;;;;93.27;42.87;;;;;;;9.46;74.00;101042.05;3500219;83;32148;-86
2021/04/18 19:58:44;;;;;;;95.65;43.30;;;;;;;9.33;74.30;101036.42;3498211;83;98890;-85
2021/04/18 20:03:44;;;;;;;98.13;46.10;;;;;;;9.24;74.84;101042.09;3500414;83;30868;-85
2021/04/18 20:08:45;;;;;;;115.50;50.80;;;;;;;9.12;75.23;101046.30;3498615;83;98876;-86
2021/04/18 20:13:46;;;;;;;163.33;71.80;;;;;;;8.94;76.11;101029.89;3493980;83;35102;-85
2021/04/18 20:18:47;;;;;;;171.10;77.93;;;;;;;8.94;76.11;101029.89;3475680;83;99254;-86
2021/04/18 20:23:47;;;;;;;140.07;65.43;;;;;;;9.04;76.11;101046.42;3482704;83;35003;-85
2021/04/18 20:28:48;;;;;;;121.90;56.27;;;;;;;9.03;76.35;101047.02;3477275;83;99111;-86
2021/04/18 20:33:49;;;;;;;115.13;57.33;;;;;;;8.99;76.56;101046.12;3481271;83;34979;-86
2021/04/18 20:38:49;;;;;;;101.33;49.83;;;;;;;8.98;76.78;101048.64;3460916;84;99109;-86
2021/04/18 20:43:50;;;;;;;90.80;42.43;;;;;;;8.88;76.95;101040.91;3483641;83;33180;-85
2021/04/18 20:48:51;;;;;;;83.80;41.33;;;;;;;8.86;77.11;101039.66;3475960;82;98539;-85
2021/04/18 20:53:52;;;;;;;73.23;38.43;;;;;;;8.82;77.35;101038.20;3484255;83;32775;-86
2021/04/18 20:58:52;;;;;;;80.80;38.83;;;;;;;8.83;77.56;101041.16;3474641;83;98945;-85
2021/04/18 21:03:53;;;;;;;70.93;36.33;;;;;;;8.77;77.68;101043.94;3483942;83;32751;-86
2021/04/18 21:08:55;;;;;;;75.40;38.17;;;;;;;8.75;77.73;101040.76;3473417;83;98510;-84
2021/04/18 21:13:56;;;;;;;74.50;36.07;;;;;;;8.75;77.78;101034.45;3472012;83;32692;-85
2021/04/18 21:18:57;;;;;;;62.20;31.40;;;;;;;8.59;78.01;101037.72;3471890;83;98605;-86
2021/04/18 21:23:57;;;;;;;62.10;33.38;;;;;;;8.40;78.36;101042.47;3406680;85;33238;-86
2021/04/18 21:28:58;;;;;;;69.43;35.87;;;;;;;8.44;78.37;101050.23;3412560;85;98544;-85
2021/04/18 21:33:59;;;;;;;71.60;36.97;;;;;;;8.30;78.92;101015.52;3418445;85;25993;-86
2021/04/18 21:38:59;;;;;;;71.77;35.33;;;;;;;8.30;78.92;101015.52;3410808;85;98407;-87
2021/04/18 21:44:03;;;;;;;64.67;32.97;;;;;;;8.38;78.90;101032.42;3480450;83;26061;-85
2021/04/18 21:49:03;;;;;;;71.63;37.17;;;;;;;8.29;79.32;101032.34;3476421;83;98639;-85
2021/04/18 21:54:04;;;;;;;72.27;37.10;;;;;;;8.26;79.53;101035.77;3487459;83;25958;-86
2021/04/18 21:59:05;;;;;;;78.50;41.03;;;;;;;8.26;79.49;101037.14;3475235;83;98341;-86
2021/04/18 22:04:06;;;;;;;85.27;39.57;;;;;;;8.27;79.66;101032.69;3486148;83;26348;-86
2021/04/18 22:09:08;;;;;;;80.75;41.50;;;;;;;8.23;79.58;101040.00;3474803;83;98625;-86
2021/04/18 22:14:08;;;;;;;78.10;38.70;;;;;;;8.22;79.76;101041.16;3505927;82;26453;-86
2021/04/18 22:19:09;;;;;;;83.53;42.93;;;;;;;8.20;80.04;101038.53;3513535;82;99129;-86
2021/04/18 22:24:10;;;;;;;88.83;43.87;;;;;;;8.22;79.96;101030.74;3513122;82;26837;-86
2021/04/18 22:29:11;;;;;;;81.70;40.20;;;;;;;8.24;79.96;101033.95;3504795;82;98688;-86
2021/04/18 22:34:12;;;;;;;81.13;40.10;;;;;;;8.27;80.14;101040.10;3510974;82;33347;-87
2021/04/18 22:39:12;;;;;;;64.90;32.80;;;;;;;8.29;80.38;101024.91;3510791;82;99006;-85
2021/04/18 22:44:13;;;;;;;60.83;31.97;;;;;;;8.20;80.63;101009.73;3517476;82;33397;-86
2021/04/18 22:49:14;;;;;;;56.60;29.47;;;;;;;8.37;81.20;101022.61;3508105;82;98535;-86
2021/04/18 22:54:15;;;;;;;57.80;28.87;;;;;;;8.43;81.39;101016.29;3512466;82;33841;-86
2021/04/18 22:59:15;;;;;;;56.10;27.83;;;;;;;8.50;81.53;101011.03;3509492;81;98568;-86